Terminal Aerodrome Forecast
Issued by NWS

Home | Current Version | Previous Version | Graphics & Text | Print | Product List | Glossary On
Versions: 1 2 3 4 5 6 7 8 9 10 11 12 13 14 15 16
215
FTUS43 KICT 170520
TAFCNU
TAF
KCNU 170520Z 1706/1806 32006KT P6SM SKC
     FM170800 VRB03KT P6SM SKC
     FM171600 20006KT P6SM SKC=

USA.gov is the U.S. government's official web portal to all federal, state and local government web resources and services.